Time;durP1;ratioP1;P1;durP2;ratioP2;P2;SDS_P1;SDS_P2;PMS_P1;PMS_P2;Temp;Humidity;BMP_temperature;BMP_pressure;BME280_temperature;BME280_humidity;BME280_pressure;Samples;Min_cycle;Max_cycle;Signal;HPM_P1;HPM_P2
2023/08/23 00:00:34;;;;;;;2.60;2.40;;;;;;;;;;6309374;28;20298;-70
2023/08/23 00:03:38;;;;;;;2.78;2.63;;;;;;;;;;6308767;28;20310;-71
2023/08/23 00:06:42;;;;;;;3.70;2.53;;;;;;;;;;6309944;28;20290;-70
2023/08/23 00:09:46;;;;;;;3.38;2.60;;;;;;;;;;6309351;28;20485;-70
2023/08/23 00:12:53;;;;;;;5.57;2.40;;;;;;;;;;6309410;28;20294;-70
2023/08/23 00:15:56;;;;;;;4.85;2.53;;;;;;;;;;6309070;28;20302;-70
2023/08/23 00:19:00;;;;;;;5.45;2.55;;;;;;;;;;6308972;28;20447;-70
2023/08/23 00:22:04;;;;;;;6.38;2.05;;;;;;;;;;6311168;28;20628;-70
2023/08/23 00:25:09;;;;;;;6.28;2.33;;;;;;;;;;6313810;28;20290;-70
2023/08/23 00:28:15;;;;;;;3.83;2.20;;;;;;;;;;6313792;28;20290;-70
2023/08/23 00:31:20;;;;;;;5.03;2.50;;;;;;;;;;6295659;28;20298;-70
2023/08/23 00:34:24;;;;;;;7.55;2.42;;;;;;;;;;6313773;28;20290;-70
2023/08/23 00:37:27;;;;;;;6.20;2.30;;;;;;;;;;6313864;28;20306;-70
2023/08/23 00:40:32;;;;;;;3.08;2.08;;;;;;;;;;6295083;28;20373;-70
2023/08/23 00:43:37;;;;;;;2.47;2.38;;;;;;;;;;6294807;28;20294;-70
2023/08/23 00:46:41;;;;;;;4.90;2.58;;;;;;;;;;6295777;28;20298;-70
2023/08/23 00:49:46;;;;;;;3.47;2.50;;;;;;;;;;6312937;28;20298;-70
2023/08/23 00:52:50;;;;;;;8.13;2.70;;;;;;;;;;6313403;28;20307;-70
2023/08/23 00:55:56;;;;;;;3.85;2.50;;;;;;;;;;6294649;28;20290;-70
2023/08/23 00:59:01;;;;;;;4.15;2.65;;;;;;;;;;6311900;28;20286;-70
2023/08/23 01:02:05;;;;;;;5.68;2.83;;;;;;;;;;6312708;28;20354;-71
2023/08/23 01:05:11;;;;;;;2.75;2.50;;;;;;;;;;6294361;28;20310;-70
2023/08/23 01:08:24;;;;;;;4.60;2.50;;;;;;;;;;6312645;28;20266;-70
2023/08/23 01:11:34;;;;;;;5.50;2.55;;;;;;;;;;6312482;28;20603;-70
2023/08/23 01:14:44;;;;;;;2.55;1.98;;;;;;;;;;6312336;28;20298;-70
2023/08/23 01:17:49;;;;;;;5.07;2.60;;;;;;;;;;6312940;28;20374;-70
2023/08/23 01:20:53;;;;;;;4.78;2.28;;;;;;;;;;6312352;28;20381;-71
2023/08/23 01:23:59;;;;;;;7.35;2.97;;;;;;;;;;6312296;28;20290;-71
2023/08/23 01:27:03;;;;;;;4.13;2.80;;;;;;;;;;6312780;28;20302;-71
2023/08/23 01:30:08;;;;;;;7.47;2.80;;;;;;;;;;6293470;28;20294;-70
2023/08/23 01:33:18;;;;;;;7.18;2.95;;;;;;;;;;6293210;28;20306;-70
2023/08/23 01:36:24;;;;;;;3.90;2.92;;;;;;;;;;6312046;28;20310;-71
2023/08/23 01:39:30;;;;;;;3.58;2.70;;;;;;;;;;6311874;28;20294;-70
2023/08/23 01:42:33;;;;;;;3.08;2.72;;;;;;;;;;6312626;28;20290;-70
2023/08/23 01:45:37;;;;;;;4.05;2.65;;;;;;;;;;6311556;28;20290;-70
2023/08/23 01:48:41;;;;;;;5.03;2.80;;;;;;;;;;6293711;28;20482;-70
2023/08/23 01:51:45;;;;;;;5.10;2.92;;;;;;;;;;6312256;28;20298;-70
2023/08/23 01:54:50;;;;;;;4.88;3.00;;;;;;;;;;6293306;28;20318;-70
2023/08/23 01:57:53;;;;;;;3.42;3.10;;;;;;;;;;6293841;28;20290;-71
2023/08/23 02:00:59;;;;;;;3.60;2.70;;;;;;;;;;6292700;28;20302;-70
2023/08/23 02:04:03;;;;;;;2.95;2.60;;;;;;;;;;6292476;28;20298;-70
2023/08/23 02:07:06;;;;;;;7.22;2.90;;;;;;;;;;6293605;28;20480;-70
2023/08/23 02:10:11;;;;;;;4.35;2.83;;;;;;;;;;6311043;28;20298;-70
2023/08/23 02:13:15;;;;;;;7.05;2.95;;;;;;;;;;6293127;28;20295;-70
2023/08/23 02:16:19;;;;;;;6.82;2.55;;;;;;;;;;6292896;28;20290;-70
2023/08/23 02:19:23;;;;;;;5.22;3.03;;;;;;;;;;6292884;28;20315;-70
2023/08/23 02:22:27;;;;;;;4.38;3.33;;;;;;;;;;6311514;28;20302;-70
2023/08/23 02:25:33;;;;;;;3.00;2.80;;;;;;;;;;6310869;28;20289;-70
2023/08/23 02:28:38;;;;;;;6.45;3.00;;;;;;;;;;6292625;28;20434;-70
2023/08/23 02:31:42;;;;;;;4.75;3.03;;;;;;;;;;6292784;28;20286;-70
2023/08/23 02:34:46;;;;;;;4.80;3.33;;;;;;;;;;6310641;28;20290;-70
2023/08/23 02:37:50;;;;;;;8.07;3.33;;;;;;;;;;6311108;28;20294;-70
2023/08/23 02:40:57;;;;;;;3.70;3.40;;;;;;;;;;6310426;28;20314;-71
2023/08/23 02:44:01;;;;;;;7.38;2.83;;;;;;;;;;6309147;28;20287;-70
2023/08/23 02:47:05;;;;;;;8.93;3.40;;;;;;;;;;6310307;28;20243;-70
2023/08/23 02:50:09;;;;;;;6.70;3.35;;;;;;;;;;6309745;28;20302;-70
2023/08/23 02:53:13;;;;;;;9.35;3.30;;;;;;;;;;6310552;28;20251;-70
2023/08/23 02:56:18;;;;;;;3.58;3.20;;;;;;;;;;6291476;28;20301;-70
2023/08/23 02:59:24;;;;;;;3.22;2.85;;;;;;;;;;6291418;28;20306;-70
2023/08/23 03:02:27;;;;;;;10.02;3.60;;;;;;;;;;6309364;28;20290;-70
2023/08/23 03:05:31;;;;;;;7.20;3.15;;;;;;;;;;6308273;28;20468;-70
2023/08/23 03:08:35;;;;;;;8.45;3.38;;;;;;;;;;6309383;28;20293;-70
2023/08/23 03:11:40;;;;;;;4.47;3.60;;;;;;;;;;6299714;28;20325;-71
2023/08/23 03:14:44;;;;;;;5.65;3.13;;;;;;;;;;6291234;28;20558;-71
2023/08/23 03:17:48;;;;;;;5.72;3.50;;;;;;;;;;6291556;28;20296;-71
2023/08/23 03:20:52;;;;;;;6.63;3.10;;;;;;;;;;6291409;28;20610;-71
2023/08/23 03:23:56;;;;;;;4.93;3.10;;;;;;;;;;6290649;28;20306;-71
2023/08/23 03:27:01;;;;;;;4.63;3.60;;;;;;;;;;6309966;28;20298;-71
2023/08/23 03:30:06;;;;;;;8.55;3.20;;;;;;;;;;6290778;28;20294;-70
2023/08/23 03:33:11;;;;;;;6.85;3.30;;;;;;;;;;6291071;28;20306;-71
2023/08/23 03:36:15;;;;;;;9.77;3.42;;;;;;;;;;6291101;28;20583;-71
2023/08/23 03:39:19;;;;;;;5.22;3.13;;;;;;;;;;6307434;28;20294;-71
2023/08/23 03:42:24;;;;;;;11.82;3.50;;;;;;;;;;6309736;28;20294;-71
2023/08/23 03:45:28;;;;;;;10.75;3.47;;;;;;;;;;6308997;28;20469;-71
2023/08/23 03:48:32;;;;;;;7.32;3.58;;;;;;;;;;6291233;28;20294;-71
2023/08/23 03:51:36;;;;;;;8.90;3.42;;;;;;;;;;6309423;28;20471;-71
2023/08/23 03:54:39;;;;;;;5.55;3.45;;;;;;;;;;6290615;28;20302;-71
2023/08/23 03:57:44;;;;;;;5.38;3.50;;;;;;;;;;6308598;28;20289;-71
2023/08/23 04:00:50;;;;;;;3.38;3.08;;;;;;;;;;6307736;28;20567;-71
2023/08/23 04:03:54;;;;;;;7.07;3.33;;;;;;;;;;6290234;28;20381;-71
2023/08/23 04:06:58;;;;;;;6.47;3.70;;;;;;;;;;6291702;28;20294;-71
2023/08/23 04:10:02;;;;;;;9.65;3.22;;;;;;;;;;6308583;28;20458;-71
2023/08/23 04:13:08;;;;;;;3.97;3.63;;;;;;;;;;6290405;28;20547;-71
2023/08/23 04:16:13;;;;;;;6.70;3.53;;;;;;;;;;6291620;28;20570;-71
2023/08/23 04:19:17;;;;;;;8.82;3.38;;;;;;;;;;6290621;28;20294;-71
2023/08/23 04:22:21;;;;;;;6.00;3.58;;;;;;;;;;6309529;28;20408;-71
2023/08/23 04:25:25;;;;;;;7.82;3.60;;;;;;;;;;6290905;28;20294;-71
2023/08/23 04:28:31;;;;;;;8.73;3.60;;;;;;;;;;6309167;28;20295;-71
2023/08/23 04:31:35;;;;;;;10.23;3.95;;;;;;;;;;6291400;28;20286;-71
2023/08/23 04:34:47;;;;;;;6.40;3.63;;;;;;;;;;6307297;28;20294;-71
2023/08/23 04:37:51;;;;;;;6.60;3.45;;;;;;;;;;6307067;28;20290;-71
2023/08/23 04:41:00;;;;;;;9.77;3.40;;;;;;;;;;6291308;28;20294;-71
2023/08/23 04:44:06;;;;;;;3.92;3.30;;;;;;;;;;6289854;28;20295;-71
2023/08/23 04:47:10;;;;;;;3.90;3.47;;;;;;;;;;6291032;28;20550;-71
2023/08/23 04:50:14;;;;;;;5.28;3.13;;;;;;;;;;6306986;28;20299;-71
2023/08/23 04:53:18;;;;;;;5.85;3.60;;;;;;;;;;6290513;28;20285;-71
2023/08/23 04:56:22;;;;;;;7.82;3.75;;;;;;;;;;6290378;28;20294;-71
2023/08/23 04:59:28;;;;;;;10.45;3.88;;;;;;;;;;6290332;28;20302;-71
2023/08/23 05:02:31;;;;;;;7.03;3.97;;;;;;;;;;6290463;28;20547;-73
2023/08/23 05:05:38;;;;;;;7.47;3.20;;;;;;;;;;6290216;28;20302;-71
2023/08/23 05:08:43;;;;;;;6.47;3.40;;;;;;;;;;6291475;28;20298;-71
2023/08/23 05:11:52;;;;;;;14.07;3.85;;;;;;;;;;6299349;28;20294;-71
2023/08/23 05:14:58;;;;;;;5.25;3.20;;;;;;;;;;6310664;28;20294;-71
2023/08/23 05:18:02;;;;;;;8.07;3.75;;;;;;;;;;6295066;28;20583;-71
2023/08/23 05:21:08;;;;;;;6.28;3.70;;;;;;;;;;6313020;28;20294;-71
2023/08/23 05:24:12;;;;;;;6.13;3.33;;;;;;;;;;6294583;28;20570;-71
2023/08/23 05:27:16;;;;;;;4.75;2.92;;;;;;;;;;6294285;28;20301;-71
2023/08/23 05:30:21;;;;;;;5.38;3.35;;;;;;;;;;6312502;28;20290;-71
2023/08/23 05:33:25;;;;;;;7.78;3.60;;;;;;;;;;6293634;28;20286;-71
2023/08/23 05:36:29;;;;;;;2.85;2.65;;;;;;;;;;6311146;28;20290;-72
2023/08/23 05:39:33;;;;;;;5.53;3.00;;;;;;;;;;6293933;28;20310;-72
2023/08/23 05:42:38;;;;;;;6.88;2.83;;;;;;;;;;6312155;28;20298;-72
2023/08/23 05:45:44;;;;;;;12.43;3.00;;;;;;;;;;6294549;28;20301;-71
2023/08/23 05:48:49;;;;;;;4.22;3.45;;;;;;;;;;6312288;28;20290;-71
2023/08/23 05:51:53;;;;;;;5.47;2.88;;;;;;;;;;6294451;28;20298;-71
2023/08/23 05:54:57;;;;;;;3.35;3.10;;;;;;;;;;6311552;28;20297;-69
2023/08/23 05:58:01;;;;;;;4.38;3.45;;;;;;;;;;6311599;28;20287;-70
2023/08/23 06:01:06;;;;;;;5.20;2.97;;;;;;;;;;6312348;28;20365;-69
2023/08/23 06:04:10;;;;;;;6.68;3.10;;;;;;;;;;6311096;28;20306;-70
2023/08/23 06:07:15;;;;;;;9.93;2.92;;;;;;;;;;6312118;28;20302;-69
2023/08/23 06:10:19;;;;;;;3.78;2.90;;;;;;;;;;6311407;28;20299;-69
2023/08/23 06:13:24;;;;;;;3.47;3.20;;;;;;;;;;6311364;28;20302;-69
2023/08/23 06:16:29;;;;;;;8.43;2.88;;;;;;;;;;6311889;28;20439;-70
2023/08/23 06:19:33;;;;;;;7.38;2.97;;;;;;;;;;6310596;28;20299;-70
2023/08/23 06:22:38;;;;;;;12.52;3.47;;;;;;;;;;6311254;28;20297;-71
2023/08/23 06:25:41;;;;;;;3.20;2.90;;;;;;;;;;6311498;28;20294;-71
2023/08/23 06:28:45;;;;;;;6.60;2.92;;;;;;;;;;6292467;28;20290;-70
2023/08/23 06:31:50;;;;;;;6.88;3.10;;;;;;;;;;6311432;28;20295;-70
2023/08/23 06:34:54;;;;;;;6.32;2.80;;;;;;;;;;6311038;28;20359;-72
2023/08/23 06:37:58;;;;;;;5.32;2.75;;;;;;;;;;6310459;28;20315;-71
2023/08/23 06:41:02;;;;;;;6.70;2.83;;;;;;;;;;6310307;28;20278;-72
2023/08/23 06:44:06;;;;;;;9.60;3.17;;;;;;;;;;6310384;28;20289;-71
2023/08/23 06:47:11;;;;;;;4.50;2.75;;;;;;;;;;6311184;28;20247;-72
2023/08/23 06:50:15;;;;;;;4.85;2.67;;;;;;;;;;6310923;28;20301;-72
2023/08/23 06:53:20;;;;;;;5.57;2.70;;;;;;;;;;6310478;28;20298;-72
2023/08/23 06:56:25;;;;;;;3.15;2.95;;;;;;;;;;6310640;28;20297;-71
2023/08/23 06:59:29;;;;;;;6.15;2.83;;;;;;;;;;6310285;28;20366;-71
2023/08/23 07:02:34;;;;;;;6.97;3.47;;;;;;;;;;6292518;28;20302;-72
2023/08/23 07:05:38;;;;;;;11.20;4.30;;;;;;;;;;6311191;28;20345;-73
2023/08/23 07:08:42;;;;;;;6.50;2.80;;;;;;;;;;6291813;28;20294;-71
2023/08/23 07:11:46;;;;;;;2.75;2.38;;;;;;;;;;6310571;28;20294;-71
2023/08/23 07:14:50;;;;;;;5.95;2.55;;;;;;;;;;6310545;28;20299;-71
2023/08/23 07:17:55;;;;;;;3.42;2.97;;;;;;;;;;6310517;28;20286;-71
2023/08/23 07:20:59;;;;;;;3.00;2.70;;;;;;;;;;6310393;28;20350;-71
2023/08/23 07:24:03;;;;;;;5.43;2.97;;;;;;;;;;6309913;28;20294;-71
2023/08/23 07:27:07;;;;;;;3.88;2.85;;;;;;;;;;6310452;28;20282;-71
2023/08/23 07:30:13;;;;;;;3.20;2.97;;;;;;;;;;6287984;28;20291;-71
2023/08/23 07:33:18;;;;;;;5.35;2.80;;;;;;;;;;6284077;28;20307;-71
2023/08/23 07:36:22;;;;;;;8.65;3.20;;;;;;;;;;6285172;28;20298;-71
2023/08/23 07:39:27;;;;;;;5.07;3.08;;;;;;;;;;6283993;28;20294;-71
2023/08/23 07:42:31;;;;;;;10.60;3.30;;;;;;;;;;6285152;28;20290;-71
2023/08/23 07:45:35;;;;;;;3.10;2.90;;;;;;;;;;6285419;28;20303;-71
2023/08/23 07:48:41;;;;;;;7.40;3.05;;;;;;;;;;6266780;28;20435;-71
2023/08/23 07:51:45;;;;;;;5.72;2.90;;;;;;;;;;6285110;28;20298;-70
2023/08/23 07:54:48;;;;;;;6.70;3.13;;;;;;;;;;6284206;28;20307;-71
2023/08/23 07:57:52;;;;;;;5.85;2.70;;;;;;;;;;6283924;28;20287;-71
2023/08/23 08:00:56;;;;;;;2.85;2.75;;;;;;;;;;6284704;28;20298;-71
2023/08/23 08:04:02;;;;;;;3.40;2.65;;;;;;;;;;6281732;28;20548;-71
2023/08/23 08:07:06;;;;;;;2.58;2.47;;;;;;;;;;6285048;28;20290;-71
2023/08/23 08:10:10;;;;;;;3.50;3.17;;;;;;;;;;6290834;28;20294;-71
2023/08/23 08:13:14;;;;;;;5.47;3.30;;;;;;;;;;6309130;28;20302;-71
2023/08/23 08:16:18;;;;;;;5.05;2.70;;;;;;;;;;6309687;28;20290;-72
2023/08/23 08:19:23;;;;;;;2.80;2.60;;;;;;;;;;6308566;28;20303;-72
2023/08/23 08:22:27;;;;;;;10.32;2.53;;;;;;;;;;6309019;28;20302;-71
2023/08/23 08:25:30;;;;;;;8.10;2.83;;;;;;;;;;6308437;28;20294;-72
2023/08/23 08:28:34;;;;;;;3.17;2.78;;;;;;;;;;6308883;28;20302;-72
2023/08/23 08:31:39;;;;;;;5.00;2.40;;;;;;;;;;6309438;28;20498;-71
2023/08/23 08:34:46;;;;;;;3.40;2.50;;;;;;;;;;6308897;28;20294;-71
2023/08/23 08:37:50;;;;;;;4.97;2.53;;;;;;;;;;6308252;28;20306;-70
2023/08/23 08:40:54;;;;;;;2.80;2.60;;;;;;;;;;6309618;28;20481;-72
2023/08/23 08:43:58;;;;;;;5.40;2.60;;;;;;;;;;6312267;28;20294;-70
2023/08/23 08:47:02;;;;;;;5.38;2.70;;;;;;;;;;6312782;28;20266;-70
2023/08/23 08:50:08;;;;;;;4.70;2.30;;;;;;;;;;6313103;28;20294;-69
2023/08/23 08:53:15;;;;;;;4.47;2.30;;;;;;;;;;6313026;28;20298;-71
2023/08/23 08:56:19;;;;;;;6.65;2.65;;;;;;;;;;6295759;28;20470;-70
2023/08/23 08:59:23;;;;;;;4.78;2.50;;;;;;;;;;6312791;28;20298;-70
2023/08/23 09:02:27;;;;;;;4.03;3.10;;;;;;;;;;6313171;28;20314;-70
2023/08/23 09:05:33;;;;;;;3.38;2.95;;;;;;;;;;6311952;28;20317;-72
2023/08/23 09:08:36;;;;;;;8.38;3.13;;;;;;;;;;6312442;28;20298;-70
2023/08/23 09:11:40;;;;;;;2.67;2.50;;;;;;;;;;6312748;28;20478;-70
2023/08/23 09:14:48;;;;;;;7.13;2.60;;;;;;;;;;6312144;28;20298;-70
2023/08/23 09:17:54;;;;;;;4.65;2.60;;;;;;;;;;6312480;28;20537;-70
2023/08/23 09:20:59;;;;;;;6.80;2.60;;;;;;;;;;6312546;28;20294;-70
2023/08/23 09:24:04;;;;;;;2.53;2.28;;;;;;;;;;6310810;28;20294;-71
2023/08/23 09:27:08;;;;;;;2.83;2.28;;;;;;;;;;6312961;28;20597;-70
2023/08/23 09:30:24;;;;;;;10.13;2.85;;;;;;;;;;6312112;28;20303;-72
2023/08/23 09:33:28;;;;;;;4.78;2.63;;;;;;;;;;6310713;28;20474;-72
2023/08/23 09:36:39;;;;;;;2.40;2.30;;;;;;;;;;6310675;28;20294;-71
2023/08/23 09:39:43;;;;;;;4.28;2.70;;;;;;;;;;6311667;28;20448;-72
2023/08/23 09:42:48;;;;;;;2.97;2.40;;;;;;;;;;6294239;28;20294;-71
2023/08/23 09:45:52;;;;;;;2.55;2.45;;;;;;;;;;6312503;28;20290;-71
2023/08/23 09:48:56;;;;;;;7.85;2.67;;;;;;;;;;6311798;28;20453;-71
2023/08/23 09:52:03;;;;;;;3.85;2.75;;;;;;;;;;6312097;28;20298;-71
2023/08/23 09:55:11;;;;;;;5.90;2.50;;;;;;;;;;6310522;28;20317;-71
2023/08/23 09:58:18;;;;;;;4.53;2.70;;;;;;;;;;6311282;28;20302;-71
2023/08/23 10:01:25;;;;;;;2.90;2.40;;;;;;;;;;6309927;28;20582;-71
2023/08/23 10:04:37;;;;;;;11.98;2.80;;;;;;;;;;6311080;28;20325;-71
2023/08/23 10:07:43;;;;;;;6.93;2.53;;;;;;;;;;6311242;28;20305;-72
2023/08/23 10:10:49;;;;;;;9.05;2.92;;;;;;;;;;6293894;28;20293;-72
2023/08/23 10:13:54;;;;;;;10.35;3.30;;;;;;;;;;6293341;28;20306;-71
2023/08/23 10:16:59;;;;;;;2.75;2.55;;;;;;;;;;6311778;28;20362;-72
2023/08/23 10:20:05;;;;;;;3.80;2.83;;;;;;;;;;6310115;28;20298;-72
2023/08/23 10:23:15;;;;;;;3.25;2.88;;;;;;;;;;6310994;28;20294;-72
2023/08/23 10:26:21;;;;;;;3.17;2.67;;;;;;;;;;6312002;28;20303;-72
2023/08/23 10:29:27;;;;;;;7.05;2.85;;;;;;;;;;6310635;28;20293;-71
2023/08/23 10:32:37;;;;;;;2.90;2.58;;;;;;;;;;6310691;28;20298;-72
2023/08/23 10:35:42;;;;;;;4.00;3.05;;;;;;;;;;6311017;28;20290;-72
2023/08/23 10:38:48;;;;;;;7.20;3.20;;;;;;;;;;6310627;28;20298;-72
2023/08/23 10:41:52;;;;;;;3.38;2.90;;;;;;;;;;6311226;28;20286;-72
2023/08/23 10:44:59;;;;;;;5.70;3.03;;;;;;;;;;6310330;28;20451;-72
2023/08/23 10:48:03;;;;;;;3.47;2.90;;;;;;;;;;6310126;28;20286;-72
2023/08/23 10:51:08;;;;;;;3.10;2.63;;;;;;;;;;6310766;28;20298;-72
2023/08/23 10:54:13;;;;;;;7.55;2.67;;;;;;;;;;6310136;28;20294;-72
2023/08/23 10:57:17;;;;;;;4.70;2.53;;;;;;;;;;6310364;28;20318;-71
2023/08/23 11:00:21;;;;;;;8.30;3.53;;;;;;;;;;6309672;28;20290;-73
2023/08/23 11:03:27;;;;;;;4.57;3.03;;;;;;;;;;6309729;28;20310;-72
2023/08/23 11:06:31;;;;;;;6.97;3.30;;;;;;;;;;6310547;28;20358;-72
2023/08/23 11:09:37;;;;;;;2.92;2.72;;;;;;;;;;6309620;28;20298;-72
2023/08/23 11:12:40;;;;;;;8.57;2.90;;;;;;;;;;6309782;28;20297;-72
2023/08/23 11:15:45;;;;;;;4.32;2.95;;;;;;;;;;6310133;28;20298;-72
2023/08/23 11:18:48;;;;;;;5.95;2.72;;;;;;;;;;6309881;28;20293;-72
2023/08/23 11:21:52;;;;;;;3.15;2.95;;;;;;;;;;6310256;28;20290;-72
2023/08/23 11:24:58;;;;;;;6.10;2.88;;;;;;;;;;6291020;28;20579;-72
2023/08/23 11:28:05;;;;;;;4.55;2.85;;;;;;;;;;6309840;28;20285;-72
2023/08/23 11:31:09;;;;;;;4.68;2.72;;;;;;;;;;6309894;28;20294;-72
2023/08/23 11:34:13;;;;;;;3.45;2.67;;;;;;;;;;6309524;28;20318;-71
2023/08/23 11:37:18;;;;;;;3.67;2.80;;;;;;;;;;6309947;28;20252;-72
2023/08/23 11:40:25;;;;;;;4.00;3.05;;;;;;;;;;6309350;28;20293;-72
2023/08/23 11:43:30;;;;;;;7.25;3.15;;;;;;;;;;6309099;28;20456;-72
2023/08/23 11:46:38;;;;;;;4.93;2.70;;;;;;;;;;6309885;28;20290;-72
2023/08/23 11:49:42;;;;;;;6.88;3.15;;;;;;;;;;6309560;28;20300;-72
2023/08/23 11:52:48;;;;;;;3.15;2.83;;;;;;;;;;6309590;28;20294;-72
2023/08/23 11:55:57;;;;;;;3.80;2.75;;;;;;;;;;6309770;28;20305;-71
2023/08/23 11:59:00;;;;;;;9.52;3.30;;;;;;;;;;6308207;28;20290;-72
2023/08/23 12:02:06;;;;;;;3.13;2.50;;;;;;;;;;6309323;28;20245;-72
2023/08/23 12:05:12;;;;;;;4.38;2.88;;;;;;;;;;6308311;28;20422;-72
2023/08/23 12:08:16;;;;;;;2.70;2.50;;;;;;;;;;6308396;28;20282;-72
2023/08/23 12:11:21;;;;;;;3.58;3.22;;;;;;;;;;6309284;28;20318;-72
2023/08/23 12:14:28;;;;;;;4.18;2.70;;;;;;;;;;6308629;28;20302;-72
2023/08/23 12:17:32;;;;;;;4.03;3.10;;;;;;;;;;6309619;28;20306;-72
2023/08/23 12:20:35;;;;;;;4.57;2.67;;;;;;;;;;6314168;28;20299;-72
2023/08/23 12:23:39;;;;;;;2.55;2.40;;;;;;;;;;6313478;28;20294;-72
2023/08/23 12:26:44;;;;;;;2.70;2.55;;;;;;;;;;6314262;28;20438;-72
2023/08/23 12:29:48;;;;;;;3.05;2.45;;;;;;;;;;6313576;28;20582;-72
2023/08/23 12:32:52;;;;;;;4.68;3.17;;;;;;;;;;6313216;28;20285;-72
2023/08/23 12:35:56;;;;;;;3.55;2.83;;;;;;;;;;6314041;28;20307;-72
2023/08/23 12:39:00;;;;;;;2.97;2.78;;;;;;;;;;6313481;28;20294;-72
2023/08/23 12:42:06;;;;;;;5.93;3.30;;;;;;;;;;6314087;28;20297;-71
2023/08/23 12:45:10;;;;;;;6.45;2.70;;;;;;;;;;6313035;28;20547;-72
2023/08/23 12:48:15;;;;;;;3.60;3.33;;;;;;;;;;6312979;28;20298;-71
2023/08/23 12:51:19;;;;;;;10.50;2.90;;;;;;;;;;6313528;28;20297;-71
2023/08/23 12:54:22;;;;;;;4.22;2.70;;;;;;;;;;6313118;28;20295;-71
2023/08/23 12:57:29;;;;;;;8.07;3.00;;;;;;;;;;6313514;28;20290;-72
2023/08/23 13:00:33;;;;;;;2.60;2.50;;;;;;;;;;6312613;28;20377;-72
2023/08/23 13:03:37;;;;;;;3.17;2.78;;;;;;;;;;6312169;28;20302;-71
2023/08/23 13:06:41;;;;;;;4.43;3.05;;;;;;;;;;6313478;28;20313;-72
2023/08/23 13:09:44;;;;;;;3.30;2.47;;;;;;;;;;6312487;28;20301;-72
2023/08/23 13:12:50;;;;;;;3.55;2.45;;;;;;;;;;6312398;28;20337;-73
2023/08/23 13:15:53;;;;;;;5.30;2.90;;;;;;;;;;6312896;28;20599;-72
2023/08/23 13:18:57;;;;;;;6.15;3.58;;;;;;;;;;6312369;28;20294;-72
2023/08/23 13:22:01;;;;;;;4.22;2.78;;;;;;;;;;6313009;28;20298;-71
2023/08/23 13:25:06;;;;;;;3.17;2.78;;;;;;;;;;6312389;28;20583;-71
2023/08/23 13:28:11;;;;;;;2.88;2.70;;;;;;;;;;6312401;28;20574;-73
2023/08/23 13:31:15;;;;;;;9.15;2.67;;;;;;;;;;6311675;28;20306;-72
2023/08/23 13:34:21;;;;;;;3.97;3.00;;;;;;;;;;6293982;28;20302;-72
2023/08/23 13:37:24;;;;;;;11.25;3.17;;;;;;;;;;6312502;28;20310;-72
2023/08/23 13:40:28;;;;;;;9.43;3.22;;;;;;;;;;6311751;28;20578;-72
2023/08/23 13:43:33;;;;;;;4.00;2.90;;;;;;;;;;6311856;28;20598;-72
2023/08/23 13:46:37;;;;;;;8.27;2.95;;;;;;;;;;6312476;28;20600;-72
2023/08/23 13:49:41;;;;;;;2.88;2.50;;;;;;;;;;6311673;28;20614;-72
2023/08/23 13:52:44;;;;;;;6.85;2.63;;;;;;;;;;6311824;28;20303;-72
2023/08/23 13:55:48;;;;;;;3.17;2.30;;;;;;;;;;6312103;28;20440;-73
2023/08/23 13:58:53;;;;;;;2.40;2.30;;;;;;;;;;6311744;28;20313;-71
2023/08/23 14:02:05;;;;;;;7.53;2.35;;;;;;;;;;6306687;28;20267;-72
2023/08/23 14:05:09;;;;;;;3.58;2.50;;;;;;;;;;6259557;28;20307;-72
2023/08/23 14:08:13;;;;;;;3.72;2.63;;;;;;;;;;6317178;28;20305;-71
2023/08/23 14:11:17;;;;;;;7.28;2.90;;;;;;;;;;6306565;28;20262;-72
2023/08/23 14:14:22;;;;;;;6.88;2.80;;;;;;;;;;6336616;28;20389;-72
2023/08/23 14:17:26;;;;;;;5.35;2.50;;;;;;;;;;6336396;28;20305;-72
2023/08/23 14:20:30;;;;;;;7.13;2.70;;;;;;;;;;6336329;28;20578;-72
2023/08/23 14:23:34;;;;;;;7.53;2.90;;;;;;;;;;6335822;28;20293;-72
2023/08/23 14:26:37;;;;;;;2.67;2.40;;;;;;;;;;6336402;28;20561;-72
2023/08/23 14:29:43;;;;;;;3.08;2.22;;;;;;;;;;6336080;28;20289;-73
2023/08/23 14:32:50;;;;;;;4.57;2.78;;;;;;;;;;6336226;28;20293;-72
2023/08/23 14:35:53;;;;;;;6.90;2.17;;;;;;;;;;6336488;28;20492;-72
2023/08/23 14:38:58;;;;;;;3.22;2.75;;;;;;;;;;6335946;28;20289;-74
2023/08/23 14:42:03;;;;;;;3.13;2.70;;;;;;;;;;6335916;28;20293;-73
2023/08/23 14:45:11;;;;;;;3.20;2.67;;;;;;;;;;6335696;28;20289;-73
2023/08/23 14:48:14;;;;;;;5.13;2.50;;;;;;;;;;6336136;28;20285;-71
2023/08/23 14:51:18;;;;;;;7.15;2.90;;;;;;;;;;6336429;28;20289;-72
2023/08/23 14:54:22;;;;;;;2.55;2.35;;;;;;;;;;6335703;28;20297;-71
2023/08/23 14:57:26;;;;;;;3.38;2.38;;;;;;;;;;6335628;28;20294;-71
2023/08/23 15:00:32;;;;;;;2.38;2.08;;;;;;;;;;6335659;28;20289;-72
2023/08/23 15:03:37;;;;;;;3.13;2.20;;;;;;;;;;6335269;28;20318;-72
2023/08/23 15:06:41;;;;;;;2.60;2.40;;;;;;;;;;6335432;28;20306;-72
2023/08/23 15:09:45;;;;;;;5.53;2.83;;;;;;;;;;6332466;28;20290;-71
2023/08/23 15:12:48;;;;;;;4.25;3.20;;;;;;;;;;6326651;28;20376;-71
2023/08/23 15:16:00;;;;;;;3.38;2.78;;;;;;;;;;6336724;28;20341;-72
2023/08/23 15:19:04;;;;;;;3.22;2.90;;;;;;;;;;6334779;28;20301;-71
2023/08/23 15:22:08;;;;;;;4.65;3.38;;;;;;;;;;6335448;28;20458;-72
2023/08/23 15:25:12;;;;;;;8.77;3.92;;;;;;;;;;6334687;28;20289;-71
2023/08/23 15:28:16;;;;;;;4.80;3.40;;;;;;;;;;6334739;28;20297;-72
2023/08/23 15:31:21;;;;;;;4.05;2.65;;;;;;;;;;6335394;28;20381;-71
2023/08/23 15:34:33;;;;;;;3.00;2.50;;;;;;;;;;6334762;28;20301;-71
2023/08/23 15:37:36;;;;;;;2.67;2.42;;;;;;;;;;6334565;28;20297;-71
2023/08/23 15:40:40;;;;;;;2.03;2.00;;;;;;;;;;6335298;28;20286;-71
2023/08/23 15:43:44;;;;;;;3.17;2.38;;;;;;;;;;6315608;28;20298;-72
2023/08/23 15:46:50;;;;;;;5.22;2.72;;;;;;;;;;6334811;28;20554;-71
2023/08/23 15:49:54;;;;;;;4.60;2.30;;;;;;;;;;6334395;28;20290;-72
2023/08/23 15:52:58;;;;;;;4.20;2.47;;;;;;;;;;6333545;28;20297;-71
2023/08/23 15:56:03;;;;;;;4.00;2.63;;;;;;;;;;6333903;28;20270;-72
2023/08/23 15:59:07;;;;;;;4.22;2.63;;;;;;;;;;6334656;28;20289;-71
2023/08/23 16:02:15;;;;;;;4.68;2.38;;;;;;;;;;6334703;28;20238;-74
2023/08/23 16:05:19;;;;;;;6.18;2.65;;;;;;;;;;6333789;28;20369;-72
2023/08/23 16:08:23;;;;;;;2.92;2.25;;;;;;;;;;6334144;28;20297;-72
2023/08/23 16:11:27;;;;;;;4.13;2.25;;;;;;;;;;6330177;28;20422;-73
2023/08/23 16:14:31;;;;;;;5.25;2.50;;;;;;;;;;6308794;28;20609;-73
2023/08/23 16:17:36;;;;;;;6.28;2.58;;;;;;;;;;6308572;28;20306;-72
2023/08/23 16:20:45;;;;;;;3.10;2.75;;;;;;;;;;6309300;28;20294;-72
2023/08/23 16:23:48;;;;;;;9.05;3.35;;;;;;;;;;6308475;28;20350;-71
2023/08/23 16:26:53;;;;;;;7.22;4.47;;;;;;;;;;6309648;28;20578;-73
2023/08/23 16:29:58;;;;;;;8.38;4.18;;;;;;;;;;6308987;28;20286;-72
2023/08/23 16:33:04;;;;;;;3.72;2.97;;;;;;;;;;6308701;28;20294;-72
2023/08/23 16:36:08;;;;;;;5.97;3.00;;;;;;;;;;6309099;28;20294;-72
2023/08/23 16:39:12;;;;;;;3.47;2.60;;;;;;;;;;6308031;28;20294;-72
2023/08/23 16:42:16;;;;;;;4.18;2.22;;;;;;;;;;6308738;28;20586;-72
2023/08/23 16:45:20;;;;;;;5.53;2.58;;;;;;;;;;6308552;28;20290;-72
2023/08/23 16:48:25;;;;;;;8.07;3.35;;;;;;;;;;6308457;28;20310;-72
2023/08/23 16:51:29;;;;;;;4.22;3.53;;;;;;;;;;6308774;28;20286;-71
2023/08/23 16:54:33;;;;;;;4.00;2.70;;;;;;;;;;6308287;28;20294;-72
2023/08/23 16:57:37;;;;;;;9.40;2.78;;;;;;;;;;6308015;28;20465;-72
2023/08/23 17:00:41;;;;;;;4.10;2.58;;;;;;;;;;6308656;28;20318;-72
2023/08/23 17:03:46;;;;;;;6.93;2.70;;;;;;;;;;6308666;28;20386;-73
2023/08/23 17:06:49;;;;;;;11.13;3.00;;;;;;;;;;6313063;28;20424;-72
2023/08/23 17:09:54;;;;;;;10.82;2.90;;;;;;;;;;6316320;28;20289;-72
2023/08/23 17:12:58;;;;;;;7.32;2.88;;;;;;;;;;6320077;28;20290;-73
2023/08/23 17:16:02;;;;;;;6.57;3.00;;;;;;;;;;6313306;28;20294;-72
2023/08/23 17:19:07;;;;;;;6.80;2.50;;;;;;;;;;6294419;28;20306;-72
2023/08/23 17:22:11;;;;;;;8.25;3.28;;;;;;;;;;6313196;28;20342;-72
2023/08/23 17:25:15;;;;;;;14.27;2.60;;;;;;;;;;6312479;28;20298;-73
2023/08/23 17:28:19;;;;;;;3.45;2.53;;;;;;;;;;6312849;28;20566;-72
2023/08/23 17:31:23;;;;;;;5.45;2.50;;;;;;;;;;6312708;28;20291;-72
2023/08/23 17:34:28;;;;;;;4.47;3.00;;;;;;;;;;6312528;28;20350;-73
2023/08/23 17:37:33;;;;;;;3.53;2.80;;;;;;;;;;6311986;28;20297;-73
2023/08/23 17:40:36;;;;;;;11.13;2.85;;;;;;;;;;6312630;28;20290;-72
2023/08/23 17:43:40;;;;;;;9.63;2.60;;;;;;;;;;6311783;28;20286;-72
2023/08/23 17:46:44;;;;;;;12.63;2.97;;;;;;;;;;6311928;28;20295;-72
2023/08/23 17:49:53;;;;;;;17.75;3.55;;;;;;;;;;6311872;28;20302;-72
2023/08/23 17:52:58;;;;;;;8.93;2.72;;;;;;;;;;6293648;28;20291;-73
2023/08/23 17:56:03;;;;;;;6.57;2.70;;;;;;;;;;6311437;28;20267;-72
2023/08/23 17:59:06;;;;;;;10.25;2.60;;;;;;;;;;6311293;28;20290;-71
2023/08/23 18:02:10;;;;;;;9.52;3.08;;;;;;;;;;6311576;28;20258;-72
2023/08/23 18:05:15;;;;;;;10.55;3.15;;;;;;;;;;6311360;28;20305;-72
2023/08/23 18:08:19;;;;;;;20.63;3.45;;;;;;;;;;6311395;28;20298;-72
2023/08/23 18:11:23;;;;;;;12.20;3.95;;;;;;;;;;6311436;28;20314;-73
2023/08/23 18:14:28;;;;;;;8.65;3.30;;;;;;;;;;6311116;28;20293;-72
2023/08/23 18:17:31;;;;;;;12.25;3.40;;;;;;;;;;6325256;28;20294;-73
2023/08/23 18:20:37;;;;;;;7.10;3.08;;;;;;;;;;6311800;28;20295;-72
2023/08/23 18:23:40;;;;;;;6.35;3.10;;;;;;;;;;6311342;28;20622;-72
2023/08/23 18:26:44;;;;;;;3.95;3.58;;;;;;;;;;6311629;28;20289;-71